Time;durP1;ratioP1;P1;durP2;ratioP2;P2;SDS_P1;SDS_P2;PMS_P1;PMS_P2;Temp;Humidity;BMP_temperature;BMP_pressure;BME280_temperature;BME280_humidity;BME280_pressure;Samples;Min_cycle;Max_cycle;Signal;HPM_P1;HPM_P2
2023/04/10 00:01:31;;;;;;;22.20;15.55;;;;;;;7.97;100.00;101993.22;5065452;28;20048;-62
2023/04/10 00:03:59;;;;;;;21.52;14.68;;;;;;;7.97;100.00;101995.84;5064357;28;20383;-62
2023/04/10 00:06:28;;;;;;;22.77;14.38;;;;;;;7.91;100.00;101995.16;5067637;28;20047;-62
2023/04/10 00:08:56;;;;;;;21.95;14.63;;;;;;;7.86;100.00;101996.22;5063069;28;20048;-61
2023/04/10 00:11:26;;;;;;;22.73;13.75;;;;;;;7.80;100.00;101992.06;5069220;28;20097;-62
2023/04/10 00:13:54;;;;;;;21.63;13.93;;;;;;;7.79;100.00;101999.03;5076919;28;20396;-62
2023/04/10 00:16:22;;;;;;;21.38;13.93;;;;;;;7.79;100.00;102000.81;5075695;28;20041;-61
2023/04/10 00:18:50;;;;;;;19.95;13.45;;;;;;;7.72;100.00;101999.34;5075503;28;20127;-61
2023/04/10 00:21:19;;;;;;;18.92;12.38;;;;;;;7.71;100.00;101992.38;5075414;28;20040;-61
2023/04/10 00:23:47;;;;;;;18.75;12.93;;;;;;;7.69;100.00;101994.19;5075610;28;20072;-61
2023/04/10 00:26:15;;;;;;;20.25;13.13;;;;;;;7.64;100.00;101989.13;5075521;28;20498;-63
2023/04/10 00:28:44;;;;;;;18.73;12.25;;;;;;;7.63;100.00;101971.69;5074071;28;20053;-62
2023/04/10 00:31:12;;;;;;;19.25;11.65;;;;;;;7.63;100.00;101969.06;5067393;28;20488;-62
2023/04/10 00:33:40;;;;;;;17.30;11.55;;;;;;;7.64;100.00;101959.47;5064481;28;20056;-62
2023/04/10 00:36:09;;;;;;;19.35;12.40;;;;;;;7.59;100.00;101957.00;5063230;28;20132;-62
2023/04/10 00:38:37;;;;;;;18.33;11.77;;;;;;;7.55;100.00;101947.53;5060085;28;20041;-62
2023/04/10 00:41:06;;;;;;;18.08;11.23;;;;;;;7.56;100.00;101959.72;5064441;28;20063;-62
2023/04/10 00:43:34;;;;;;;18.67;11.52;;;;;;;7.55;100.00;101955.38;5063844;28;20120;-62
2023/04/10 00:46:05;;;;;;;17.27;11.45;;;;;;;7.53;100.00;101952.84;5056618;28;20122;-62
2023/04/10 00:48:34;;;;;;;16.45;10.60;;;;;;;7.54;100.00;101943.19;5065526;28;20102;-62
2023/04/10 00:51:03;;;;;;;18.23;11.38;;;;;;;7.52;100.00;101935.41;5064849;28;20060;-62
2023/04/10 00:53:32;;;;;;;18.83;11.25;;;;;;;7.44;100.00;101938.31;5065025;28;20037;-62
2023/04/10 00:56:02;;;;;;;16.52;10.95;;;;;;;7.45;100.00;101933.91;5065389;28;20570;-62
2023/04/10 00:58:30;;;;;;;15.65;10.10;;;;;;;7.45;100.00;101929.53;5062495;28;20497;-62
2023/04/10 01:00:58;;;;;;;17.10;10.10;;;;;;;7.45;100.00;101918.22;5061587;28;20064;-62
2023/04/10 01:03:27;;;;;;;15.77;10.35;;;;;;;7.37;100.00;101915.00;5061052;28;20052;-62
2023/04/10 01:06:05;;;;;;;15.85;9.95;;;;;;;7.36;100.00;101913.28;5068434;28;20080;-62
2023/04/10 01:08:44;;;;;;;15.00;9.68;;;;;;;7.42;100.00;101918.34;5073351;28;20102;-62
2023/04/10 01:11:23;;;;;;;15.75;9.43;;;;;;;7.36;100.00;101915.91;5074286;28;20041;-62
2023/04/10 01:13:58;;;;;;;17.10;10.70;;;;;;;7.35;100.00;101916.81;5074700;28;20044;-62
2023/04/10 01:16:36;;;;;;;16.15;9.27;;;;;;;7.36;100.00;101913.28;5074417;28;20051;-62
2023/04/10 01:19:15;;;;;;;14.00;9.18;;;;;;;7.34;100.00;101912.50;5075792;28;20545;-62
2023/04/10 01:21:43;;;;;;;14.68;9.50;;;;;;;7.43;100.00;101914.78;5074454;28;20058;-62
2023/04/10 01:24:24;;;;;;;14.25;8.90;;;;;;;7.43;100.00;101913.03;5074345;28;20072;-62
2023/04/10 01:27:05;;;;;;;13.77;8.73;;;;;;;7.41;100.00;101909.59;5073744;28;20132;-62
2023/04/10 01:29:41;;;;;;;16.30;9.23;;;;;;;7.37;100.00;101912.38;5072577;28;20102;-62
2023/04/10 01:32:14;;;;;;;16.02;8.85;;;;;;;7.28;100.00;101911.81;5073970;28;20504;-62
2023/04/10 01:34:46;;;;;;;14.25;9.30;;;;;;;7.33;100.00;101913.41;5073156;28;20044;-62
2023/04/10 01:37:18;;;;;;;16.17;9.63;;;;;;;7.24;100.00;101904.97;5060240;28;20412;-62
2023/04/10 01:39:54;;;;;;;16.85;9.40;;;;;;;7.28;100.00;101906.56;5056744;28;20075;-61
2023/04/10 01:42:23;;;;;;;17.50;10.40;;;;;;;7.34;100.00;101913.34;5069718;28;20040;-62
2023/04/10 01:44:54;;;;;;;16.00;9.57;;;;;;;7.29;100.00;101915.25;5064651;28;20048;-62
2023/04/10 01:47:24;;;;;;;17.13;10.07;;;;;;;7.18;100.00;101910.41;5060100;28;20044;-62
2023/04/10 01:49:54;;;;;;;17.42;11.10;;;;;;;7.20;100.00;101900.75;5060286;28;20119;-61
2023/04/10 01:52:25;;;;;;;15.77;9.82;;;;;;;7.12;100.00;101905.38;5064950;28;20506;-62
2023/04/10 01:54:53;;;;;;;17.83;10.43;;;;;;;7.09;100.00;101897.66;5063920;28;20515;-62
2023/04/10 01:57:22;;;;;;;15.50;10.25;;;;;;;7.12;100.00;101905.38;5059298;28;20048;-61
2023/04/10 01:59:50;;;;;;;15.70;10.13;;;;;;;7.16;100.00;101900.88;5060613;28;20053;-61
2023/04/10 02:02:20;;;;;;;17.00;10.05;;;;;;;7.09;100.00;101895.03;5064358;28;20036;-62
2023/04/10 02:04:50;;;;;;;15.75;9.38;;;;;;;7.05;100.00;101899.50;5057718;28;20858;-61
2023/04/10 02:07:26;;;;;;;17.75;10.15;;;;;;;7.10;100.00;101892.34;5073099;28;20483;-62
2023/04/10 02:10:00;;;;;;;14.60;9.40;;;;;;;6.99;100.00;101896.22;5072050;28;20086;-62
2023/04/10 02:12:31;;;;;;;16.15;9.85;;;;;;;6.98;100.00;101886.66;5060472;28;20070;-62
2023/04/10 02:15:01;;;;;;;16.33;9.90;;;;;;;6.97;100.00;101892.78;5057024;28;20048;-62
2023/04/10 02:17:33;;;;;;;16.13;10.38;;;;;;;6.91;100.00;101892.13;5065224;28;20067;-61
2023/04/10 02:20:03;;;;;;;17.55;10.82;;;;;;;6.88;100.00;101886.97;5056082;28;20059;-61
2023/04/10 02:22:31;;;;;;;22.98;9.80;;;;;;;6.84;100.00;101884.50;5068366;28;20048;-62
2023/04/10 02:25:00;;;;;;;15.15;10.15;;;;;;;6.84;100.00;101882.75;5066449;28;20484;-62
2023/04/10 02:27:30;;;;;;;15.40;9.75;;;;;;;6.84;100.00;101885.34;5059917;28;20474;-62
2023/04/10 02:29:58;;;;;;;17.95;11.00;;;;;;;6.80;100.00;101877.69;5058119;28;20480;-61
2023/04/10 02:32:26;;;;;;;16.35;10.35;;;;;;;6.82;100.00;101870.66;5063131;28;20230;-62
2023/04/10 02:34:56;;;;;;;16.75;10.55;;;;;;;6.80;100.00;101875.06;5063419;28;20040;-61
2023/04/10 02:37:25;;;;;;;16.15;10.75;;;;;;;6.77;100.00;101869.00;5059599;28;20094;-62
2023/04/10 02:39:55;;;;;;;17.45;11.13;;;;;;;6.80;100.00;101875.91;5060916;28;20037;-62
2023/04/10 02:42:23;;;;;;;17.92;11.70;;;;;;;6.75;100.00;101868.22;5066164;28;20128;-61
2023/04/10 02:44:51;;;;;;;19.70;11.95;;;;;;;6.71;100.00;101868.38;5067080;28;20063;-61
2023/04/10 02:47:20;;;;;;;18.33;11.68;;;;;;;6.68;100.00;101863.25;5060760;28;20052;-62
2023/04/10 02:49:48;;;;;;;18.90;11.55;;;;;;;6.63;100.00;101866.00;5066436;28;20418;-61
2023/04/10 02:52:17;;;;;;;19.10;12.35;;;;;;;6.63;100.00;101865.16;5054768;28;20400;-62
2023/04/10 02:54:46;;;;;;;20.92;12.95;;;;;;;6.62;100.00;101868.69;5055081;28;20060;-61
2023/04/10 02:57:14;;;;;;;21.05;12.55;;;;;;;6.59;100.00;101860.00;5057962;28;20068;-61
2023/04/10 02:59:45;;;;;;;20.10;12.40;;;;;;;6.52;100.00;101858.50;5062153;28;20119;-61
2023/04/10 03:02:13;;;;;;;18.48;12.02;;;;;;;6.52;100.00;101853.28;5066320;28;20185;-62
2023/04/10 03:04:42;;;;;;;20.83;12.73;;;;;;;6.49;100.00;101857.75;5064967;28;20091;-62
2023/04/10 03:07:10;;;;;;;19.38;12.82;;;;;;;6.54;100.00;101853.22;5070735;28;20487;-62
2023/04/10 03:09:39;;;;;;;19.20;12.82;;;;;;;6.46;100.00;101861.31;5067131;28;20099;-63
2023/04/10 03:12:07;;;;;;;17.92;11.70;;;;;;;6.43;100.00;101853.56;5050637;28;20148;-62
2023/04/10 03:14:35;;;;;;;20.25;12.27;;;;;;;6.48;100.00;101856.06;5051032;28;20073;-62
2023/04/10 03:17:04;;;;;;;18.33;12.02;;;;;;;6.46;100.00;101853.47;5054104;28;20106;-62
2023/04/10 03:19:32;;;;;;;19.77;12.82;;;;;;;6.46;100.00;101856.09;5055517;28;20124;-62
2023/04/10 03:22:00;;;;;;;20.33;12.40;;;;;;;6.36;100.00;101857.28;5062173;28;20111;-61
2023/04/10 03:24:28;;;;;;;17.80;12.38;;;;;;;6.35;100.00;101855.56;5061714;28;20534;-62
2023/04/10 03:26:57;;;;;;;19.80;12.35;;;;;;;6.27;100.00;101858.41;5062136;28;20040;-62
2023/04/10 03:29:25;;;;;;;20.77;12.85;;;;;;;6.28;100.00;101861.91;5067805;28;20044;-61
2023/04/10 03:31:53;;;;;;;21.55;13.60;;;;;;;6.22;100.00;101855.97;5060150;28;20070;-62
2023/04/10 03:34:21;;;;;;;19.80;12.10;;;;;;;6.19;100.00;101855.19;5060640;28;20087;-62
2023/04/10 03:36:50;;;;;;;19.63;12.55;;;;;;;6.18;100.00;101859.56;5063371;28;20094;-61
2023/04/10 03:39:18;;;;;;;18.30;12.00;;;;;;;6.15;100.00;101862.28;5063385;28;20036;-62
2023/04/10 03:41:46;;;;;;;19.10;12.60;;;;;;;6.08;100.00;101855.50;5057333;28;20584;-61
2023/04/10 03:44:18;;;;;;;20.52;12.90;;;;;;;6.00;100.00;101857.50;5060400;28;20047;-62
2023/04/10 03:46:46;;;;;;;19.00;12.02;;;;;;;5.99;100.00;101845.34;5062708;28;20048;-61
2023/04/10 03:49:15;;;;;;;18.15;11.85;;;;;;;5.97;100.00;101853.22;5061787;28;20037;-61
2023/04/10 03:51:43;;;;;;;20.40;11.55;;;;;;;5.98;100.00;101838.41;5063085;28;20426;-61
2023/04/10 03:54:11;;;;;;;20.48;13.05;;;;;;;5.97;100.00;101839.28;5061351;28;20124;-61
2023/04/10 03:56:39;;;;;;;18.52;12.25;;;;;;;5.90;100.00;101844.69;5061859;28;20045;-62
2023/04/10 03:59:07;;;;;;;21.45;13.27;;;;;;;5.78;100.00;101836.34;5063131;28;20415;-62
2023/04/10 04:01:37;;;;;;;18.98;12.27;;;;;;;5.82;100.00;101830.16;5068058;28;20094;-62
2023/04/10 04:04:05;;;;;;;19.02;12.20;;;;;;;5.70;100.00;101834.84;5063182;28;20132;-62
2023/04/10 04:06:33;;;;;;;20.05;12.20;;;;;;;5.75;100.00;101827.72;5064716;28;20488;-62
2023/04/10 04:09:02;;;;;;;19.35;11.57;;;;;;;5.74;100.00;101830.38;5066609;28;20053;-62
2023/04/10 04:11:30;;;;;;;18.77;12.02;;;;;;;5.66;100.00;101827.13;5062013;28;20098;-62
2023/04/10 04:14:01;;;;;;;16.20;10.93;;;;;;;5.63;100.00;101822.00;5063686;28;20051;-62
2023/04/10 04:16:29;;;;;;;20.17;12.68;;;;;;;5.70;100.00;101820.91;5063667;28;20048;-61
2023/04/10 04:18:59;;;;;;;19.65;12.80;;;;;;;5.69;100.00;101819.22;5060792;28;20090;-61
2023/04/10 04:21:27;;;;;;;19.52;12.55;;;;;;;5.67;100.00;101824.50;5064236;28;20044;-61
2023/04/10 04:23:55;;;;;;;19.80;12.88;;;;;;;5.58;100.00;101811.69;5067930;28;21633;-62
2023/04/10 04:26:23;;;;;;;22.13;12.75;;;;;;;5.55;100.00;101817.84;5065642;28;20101;-61
2023/04/10 04:28:52;;;;;;;20.48;12.27;;;;;;;5.50;100.00;101813.66;5060143;28;20051;-62
2023/04/10 04:31:20;;;;;;;21.80;12.63;;;;;;;5.48;100.00;101808.50;5066138;28;20446;-60
2023/04/10 04:33:48;;;;;;;19.13;12.63;;;;;;;5.42;100.00;101811.28;5061364;28;20052;-60
2023/04/10 04:36:17;;;;;;;20.17;12.50;;;;;;;5.46;100.00;101812.06;5064599;28;20385;-62
2023/04/10 04:38:46;;;;;;;20.10;12.40;;;;;;;5.43;100.00;101802.56;5071532;28;20052;-62
2023/04/10 04:41:14;;;;;;;20.33;12.68;;;;;;;5.45;100.00;101811.19;5064815;28;20040;-62
2023/04/10 04:43:46;;;;;;;18.55;11.48;;;;;;;5.40;100.00;101807.88;5063929;28;20132;-62
2023/04/10 04:46:14;;;;;;;18.88;11.75;;;;;;;5.32;100.00;101804.63;5063095;28;20068;-62
2023/04/10 04:48:42;;;;;;;22.23;12.55;;;;;;;5.39;100.00;101804.38;5065402;28;20059;-62
2023/04/10 04:51:13;;;;;;;18.27;11.85;;;;;;;5.34;100.00;101813.25;5066043;28;20040;-62
2023/04/10 04:53:42;;;;;;;21.70;12.93;;;;;;;5.26;100.00;101813.44;5061497;28;20045;-62
2023/04/10 04:56:10;;;;;;;19.77;12.15;;;;;;;5.34;100.00;101813.25;5062308;28;20047;-62
2023/04/10 04:58:38;;;;;;;22.45;12.07;;;;;;;5.37;100.00;101814.03;5066403;28;20637;-62
2023/04/10 05:01:07;;;;;;;18.75;12.82;;;;;;;5.37;100.00;101813.16;5064401;28;20397;-62
2023/04/10 05:03:36;;;;;;;22.08;13.02;;;;;;;5.34;100.00;101810.63;5065024;28;20045;-62
2023/04/10 05:06:04;;;;;;;20.08;12.65;;;;;;;5.39;100.00;101799.16;5062464;28;20508;-62
2023/04/10 05:08:33;;;;;;;19.92;11.93;;;;;;;5.37;100.00;101802.72;5068394;28;20032;-61
2023/04/10 05:11:02;;;;;;;19.95;11.77;;;;;;;5.33;100.00;101795.88;5067527;28;20094;-62
2023/04/10 05:13:30;;;;;;;20.27;12.85;;;;;;;5.32;100.00;101799.41;5065221;28;20438;-62
2023/04/10 05:15:58;;;;;;;18.88;12.75;;;;;;;5.33;100.00;101795.88;5063557;28;20048;-61
2023/04/10 05:18:26;;;;;;;20.60;12.95;;;;;;;5.30;100.00;101786.38;5063544;28;20036;-61
2023/04/10 05:20:55;;;;;;;20.23;12.27;;;;;;;5.32;100.00;101783.75;5070183;28;20041;-61
2023/04/10 05:23:23;;;;;;;19.40;11.95;;;;;;;5.28;100.00;101796.00;5059779;28;20397;-61
2023/04/10 05:25:51;;;;;;;20.17;12.88;;;;;;;5.28;100.00;101789.94;5062505;28;20044;-61
2023/04/10 05:28:23;;;;;;;19.73;12.15;;;;;;;5.21;100.00;101784.88;5054502;28;20076;-62
2023/04/10 05:30:51;;;;;;;20.73;12.93;;;;;;;5.30;100.00;101778.53;5064846;28;20075;-62
2023/04/10 05:33:20;;;;;;;18.23;11.88;;;;;;;5.28;100.00;101777.75;5056233;28;20132;-62
2023/04/10 05:35:48;;;;;;;19.38;11.13;;;;;;;5.31;100.00;101776.81;5059057;28;20120;-62
2023/04/10 05:38:16;;;;;;;20.85;13.05;;;;;;;5.27;100.00;101785.63;5065940;28;20049;-62
2023/04/10 05:40:45;;;;;;;18.95;12.63;;;;;;;5.27;100.00;101788.22;5062676;28;20048;-62
2023/04/10 05:43:13;;;;;;;20.83;12.48;;;;;;;5.30;100.00;101790.75;5060876;28;20115;-62
2023/04/10 05:45:45;;;;;;;18.98;11.68;;;;;;;5.33;100.00;101788.03;5064278;28;20044;-62
2023/04/10 05:48:13;;;;;;;18.63;11.43;;;;;;;5.41;100.00;101788.69;5060692;28;20045;-62
2023/04/10 05:50:41;;;;;;;19.35;10.95;;;;;;;5.52;100.00;101781.41;5064679;28;20485;-62
2023/04/10 05:53:14;;;;;;;19.08;11.43;;;;;;;5.73;100.00;101777.31;5060471;28;20091;-62
2023/04/10 05:55:42;;;;;;;19.88;12.18;;;;;;;5.70;100.00;101780.03;5062265;28;20052;-62
2023/04/10 05:58:10;;;;;;;19.30;12.07;;;;;;;5.88;100.00;101781.22;5063188;28;20448;-62
2023/04/10 06:00:38;;;;;;;18.73;11.38;;;;;;;5.89;100.00;101782.94;5062129;28;20048;-61
2023/04/10 06:03:08;;;;;;;18.75;12.35;;;;;;;5.98;100.00;101771.38;5069428;28;20047;-61
2023/04/10 06:05:36;;;;;;;18.42;11.52;;;;;;;6.12;100.00;101777.91;5060427;28;20057;-61
2023/04/10 06:08:05;;;;;;;20.15;11.98;;;;;;;6.22;100.00;101767.13;5064530;28;20071;-61
2023/04/10 06:10:33;;;;;;;18.90;11.30;;;;;;;6.23;100.00;101774.06;5059250;28;20068;-61
2023/04/10 06:13:01;;;;;;;16.85;11.32;;;;;;;6.36;100.00;101769.28;5064613;28;20043;-61
2023/04/10 06:15:29;;;;;;;19.48;11.75;;;;;;;6.50;100.00;101758.38;5061792;28;20045;-61
2023/04/10 06:17:57;;;;;;;19.17;11.13;;;;;;;6.61;100.00;101758.03;5072299;28;20083;-61
2023/04/10 06:20:27;;;;;;;18.38;11.43;;;;;;;6.71;100.00;101761.19;5058468;28;20044;-61
2023/04/10 06:22:55;;;;;;;17.92;11.93;;;;;;;6.74;100.00;101756.69;5065983;28;20514;-61
2023/04/10 06:25:23;;;;;;;19.15;12.10;;;;;;;6.77;100.00;101743.50;5062461;28;20072;-61
2023/04/10 06:27:53;;;;;;;17.77;11.48;;;;;;;6.84;100.00;101744.16;5063501;28;20125;-61
2023/04/10 06:30:21;;;;;;;18.13;10.90;;;;;;;7.03;100.00;101746.97;5054011;28;20041;-61
2023/04/10 06:32:49;;;;;;;18.00;11.45;;;;;;;7.08;100.00;101742.44;5057732;28;20056;-61
2023/04/10 06:35:18;;;;;;;17.08;11.52;;;;;;;7.16;100.00;101738.69;5061097;28;20499;-61
2023/04/10 06:37:47;;;;;;;16.83;11.15;;;;;;;7.34;100.00;101732.78;5061512;28;20109;-61
2023/04/10 06:40:15;;;;;;;16.20;10.55;;;;;;;7.43;100.00;101731.56;5059518;28;20128;-61
2023/04/10 06:42:43;;;;;;;18.63;11.43;;;;;;;7.56;100.00;101732.81;5059767;28;20415;-61
2023/04/10 06:45:11;;;;;;;17.40;10.85;;;;;;;7.66;100.00;101729.84;5061468;28;20068;-61
2023/04/10 06:47:40;;;;;;;18.20;11.13;;;;;;;7.77;100.00;101735.50;5063299;28;20095;-61
2023/04/10 06:50:09;;;;;;;18.90;11.48;;;;;;;7.93;100.00;101731.41;5058949;28;20044;-61
2023/04/10 06:52:37;;;;;;;18.23;11.63;;;;;;;8.01;100.00;101730.22;5057932;28;20095;-61
2023/04/10 06:55:07;;;;;;;19.40;11.25;;;;;;;8.15;100.00;101724.41;5059976;28;20067;-61
2023/04/10 06:57:35;;;;;;;19.02;11.48;;;;;;;8.20;100.00;101719.84;5059731;28;20053;-62
2023/04/10 07:00:04;;;;;;;16.42;10.50;;;;;;;8.37;100.00;101717.38;5059225;28;20064;-61
2023/04/10 07:02:32;;;;;;;17.08;11.13;;;;;;;8.47;100.00;101720.50;5060482;28;20094;-61
2023/04/10 07:05:00;;;;;;;18.15;10.88;;;;;;;8.49;100.00;101716.03;5063436;28;20464;-61
2023/04/10 07:07:28;;;;;;;14.98;10.20;;;;;;;8.59;100.00;101704.25;5063046;28;20101;-61
2023/04/10 07:09:57;;;;;;;16.92;11.18;;;;;;;8.88;100.00;101696.88;5059664;28;20403;-61
2023/04/10 07:12:27;;;;;;;18.35;11.45;;;;;;;8.91;100.00;101698.50;5068947;28;20197;-62
2023/04/10 07:14:57;;;;;;;19.85;10.50;;;;;;;9.17;100.00;101685.97;5058525;28;20455;-62
2023/04/10 07:17:26;;;;;;;16.23;9.70;;;;;;;9.28;100.00;101681.94;5070981;28;20045;-61
2023/04/10 07:19:54;;;;;;;15.90;10.18;;;;;;;9.37;100.00;101677.19;5070760;28;20037;-62
2023/04/10 07:22:22;;;;;;;16.42;9.63;;;;;;;9.42;100.00;101667.31;5070496;28;20047;-62
2023/04/10 07:24:51;;;;;;;16.42;9.52;;;;;;;9.61;100.00;101664.66;5074711;28;20040;-61
2023/04/10 07:27:19;;;;;;;14.98;9.60;;;;;;;9.75;100.00;101662.22;5074491;28;20098;-61
2023/04/10 07:29:54;;;;;;;15.98;9.60;;;;;;;9.79;100.00;101660.31;5074509;28;20051;-62
2023/04/10 07:32:22;;;;;;;14.60;10.00;;;;;;;9.89;100.00;101652.81;5074356;28;20041;-62
2023/04/10 07:34:50;;;;;;;15.65;9.20;;;;;;;9.97;100.00;101646.25;5074194;28;20487;-62
2023/04/10 07:37:19;;;;;;;13.77;8.95;;;;;;;10.04;100.00;101648.59;5074496;28;20515;-62
2023/04/10 07:39:47;;;;;;;13.85;9.10;;;;;;;10.14;100.00;101634.03;5076035;28;20525;-62
2023/04/10 07:42:15;;;;;;;13.73;8.68;;;;;;;10.20;100.00;101633.72;5076281;28;20044;-62
2023/04/10 07:44:43;;;;;;;13.38;8.57;;;;;;;10.32;100.00;101626.97;5076231;28;20056;-62
2023/04/10 07:47:13;;;;;;;13.43;8.00;;;;;;;10.40;100.00;101626.63;5076331;28;20071;-62
2023/04/10 07:49:41;;;;;;;14.20;9.02;;;;;;;10.41;100.00;101616.03;5075332;28;20044;-62
2023/04/10 07:52:11;;;;;;;13.32;8.43;;;;;;;10.42;100.00;101607.22;5073976;28;20072;-62
2023/04/10 07:54:39;;;;;;;12.77;7.75;;;;;;;10.60;100.00;101615.91;5075247;28;20106;-61
2023/04/10 07:57:07;;;;;;;13.82;8.43;;;;;;;10.73;100.00;101609.97;5076062;28;20507;-62
2023/04/10 07:59:36;;;;;;;12.57;8.40;;;;;;;10.80;100.00;101606.94;5075912;28;20048;-62
2023/04/10 08:02:04;;;;;;;12.80;8.48;;;;;;;10.92;98.53;101596.69;5075975;28;20450;-62
2023/04/10 08:04:34;;;;;;;14.07;8.60;;;;;;;11.04;100.00;101600.44;5075869;28;20106;-61
2023/04/10 08:07:02;;;;;;;12.70;8.10;;;;;;;11.08;99.23;101600.16;5075955;28;20441;-62
2023/04/10 08:09:33;;;;;;;12.82;8.20;;;;;;;11.21;96.15;101604.75;5075750;28;20040;-62
2023/04/10 08:12:02;;;;;;;12.05;7.63;;;;;;;11.26;96.61;101600.09;5075671;28;20033;-62
2023/04/10 08:14:33;;;;;;;13.45;8.63;;;;;;;11.36;96.19;101598.66;5073688;28;20067;-62
2023/04/10 08:17:01;;;;;;;14.00;8.65;;;;;;;11.61;94.12;101592.81;5073218;28;20044;-62
2023/04/10 08:19:29;;;;;;;15.23;7.20;;;;;;;11.86;92.11;101591.38;5074342;28;20497;-62
2023/04/10 08:21:59;;;;;;;12.48;7.78;;;;;;;11.91;90.42;101586.69;5075657;28;20045;-62
2023/04/10 08:24:27;;;;;;;12.40;8.25;;;;;;;12.03;91.07;101571.97;5075374;28;20045;-63
2023/04/10 08:26:55;;;;;;;12.40;7.93;;;;;;;12.30;91.49;101580.00;5075451;28;20040;-63
2023/04/10 08:29:23;;;;;;;12.55;8.13;;;;;;;12.34;89.06;101576.25;5075520;28;20487;-63
2023/04/10 08:31:59;;;;;;;12.70;8.50;;;;;;;12.56;90.02;101574.94;5075084;28;20468;-62
2023/04/10 08:34:27;;;;;;;12.48;7.15;;;;;;;12.60;86.40;101581.72;5073930;28;20044;-63
2023/04/10 08:36:55;;;;;;;11.27;7.60;;;;;;;12.71;88.65;101578.41;5072799;28;20044;-63
2023/04/10 08:39:28;;;;;;;12.43;7.53;;;;;;;12.80;83.98;101576.97;5073039;28;20078;-63
2023/04/10 08:41:56;;;;;;;12.68;7.30;;;;;;;12.76;nan;101572.84;5071502;28;20052;-63
2023/04/10 08:44:24;;;;;;;11.13;7.75;;;;;;;12.68;84.54;101573.34;5073249;28;20051;-63
2023/04/10 08:46:53;;;;;;;11.93;7.13;;;;;;;12.81;82.73;101584.78;5074788;28;20052;-63
2023/04/10 08:49:26;;;;;;;11.57;7.78;;;;;;;12.96;82.91;101579.50;5072057;28;20576;-63
2023/04/10 08:51:57;;;;;;;11.20;6.88;;;;;;;12.93;83.53;101579.69;5072401;28;20051;-63
2023/04/10 08:54:29;;;;;;;11.82;7.38;;;;;;;12.92;82.36;101568.28;5073879;28;20054;-63
2023/04/10 08:57:00;;;;;;;10.48;7.43;;;;;;;12.88;81.24;101563.31;5070866;28;20056;-58
2023/04/10 08:59:31;;;;;;;10.65;6.68;;;;;;;13.06;82.10;101561.28;5072498;28;20458;-57
2023/04/10 09:01:59;;;;;;;11.52;7.43;;;;;;;13.18;80.84;101563.13;5073771;28;20058;-57
2023/04/10 09:04:28;;;;;;;10.65;6.82;;;;;;;13.19;80.67;101557.72;5073947;28;20450;-57
2023/04/10 09:06:56;;;;;;;10.43;6.95;;;;;;;13.38;81.11;101559.22;5074529;28;20048;-57
2023/04/10 09:09:24;;;;;;;11.27;7.10;;;;;;;13.38;79.92;101547.81;5074490;28;20546;-57
2023/04/10 09:12:03;;;;;;;10.65;6.68;;;;;;;13.56;80.50;101551.84;5074063;28;20048;-57
2023/04/10 09:14:32;;;;;;;10.57;6.82;;;;;;;13.66;80.78;101549.44;5074366;28;20375;-57
2023/04/10 09:17:15;;;;;;;10.60;7.18;;;;;;;13.71;80.08;101557.09;5073234;28;20055;-57
2023/04/10 09:19:43;;;;;;;;;;;;;;;13.84;78.77;101547.38;5070918;28;20131;-57
2023/04/10 09:22:12;;;;;;;11.30;6.97;;;;;;;13.52;79.79;101548.59;5070373;28;19924;-57
2023/04/10 09:24:42;;;;;;;9.55;6.75;;;;;;;13.73;79.02;101544.59;5070899;28;20049;-57
2023/04/10 09:27:28;;;;;;;11.57;7.47;;;;;;;13.63;79.06;101549.66;5069826;28;20113;-57
2023/04/10 09:29:56;;;;;;;11.60;7.05;;;;;;;13.64;79.47;101538.16;5071649;28;20434;-57
2023/04/10 09:32:39;;;;;;;11.30;6.95;;;;;;;13.70;77.74;101537.72;5071918;28;20045;-62
2023/04/10 09:35:08;;;;;;;10.13;6.82;;;;;;;13.81;77.10;101534.34;5070376;28;20048;-62
2023/04/10 09:37:37;;;;;;;11.63;7.38;;;;;;;13.69;77.77;101526.31;5069419;28;20049;-62
2023/04/10 09:40:19;;;;;;;10.63;6.63;;;;;;;13.94;77.91;101516.69;5070554;28;20049;-62
2023/04/10 09:42:48;;;;;;;11.80;7.03;;;;;;;13.94;78.74;101510.56;5069194;28;20048;-63
2023/04/10 09:45:18;;;;;;;11.48;6.75;;;;;;;14.01;78.58;101514.47;5072334;28;20076;-62
2023/04/10 09:48:01;;;;;;;10.18;7.13;;;;;;;13.91;78.06;101501.06;5070795;28;20430;-62
2023/04/10 09:50:34;;;;;;;10.45;6.65;;;;;;;13.93;78.77;101493.00;5071116;28;20418;-62
2023/04/10 09:53:06;;;;;;;13.98;7.00;;;;;;;13.95;78.63;101486.66;5072158;28;20073;-62
2023/04/10 09:55:35;;;;;;;11.00;6.32;;;;;;;13.94;78.06;101478.84;5069934;28;20048;-62
2023/04/10 09:58:06;;;;;;;11.02;6.53;;;;;;;13.93;79.75;101483.28;5072863;28;20045;-62
2023/04/10 10:00:39;;;;;;;10.85;6.60;;;;;;;13.86;80.46;101472.31;5073461;28;20083;-62
2023/04/10 10:03:10;;;;;;;10.98;6.63;;;;;;;13.99;80.79;101467.00;5071751;28;20044;-63
2023/04/10 10:05:43;;;;;;;11.10;6.85;;;;;;;14.07;81.00;101458.53;5069973;28;20052;-62
2023/04/10 10:08:12;;;;;;;11.15;6.93;;;;;;;14.02;78.99;101464.13;5072528;28;20055;-62
2023/04/10 10:10:45;;;;;;;10.73;6.45;;;;;;;14.07;79.26;101447.94;5071559;28;20140;-62
2023/04/10 10:13:23;;;;;;;9.60;5.68;;;;;;;14.05;79.85;101447.19;5069175;28;20036;-62
2023/04/10 10:15:58;;;;;;;9.70;5.80;;;;;;;14.23;80.38;101444.22;5068741;28;20053;-62
2023/04/10 10:18:34;;;;;;;10.27;6.32;;;;;;;14.14;79.36;101432.50;5070159;28;20555;-62
2023/04/10 10:21:04;;;;;;;11.02;6.53;;;;;;;14.29;79.96;101423.47;5069599;28;20135;-62
2023/04/10 10:23:37;;;;;;;10.40;6.28;;;;;;;14.33;80.23;101418.81;5070177;28;20071;-62
2023/04/10 10:26:10;;;;;;;11.35;6.22;;;;;;;14.48;80.16;101419.47;5072945;28;20045;-62
2023/04/10 10:28:41;;;;;;;10.07;5.90;;;;;;;14.57;81.44;101421.44;5071582;28;20052;-62
2023/04/10 10:31:11;;;;;;;9.75;6.28;;;;;;;14.53;80.60;101419.97;5072869;28;20056;-63
2023/04/10 10:33:40;;;;;;;10.07;6.25;;;;;;;14.56;79.68;101410.97;5072645;28;20052;-62
2023/04/10 10:36:10;;;;;;;10.85;6.13;;;;;;;14.73;79.66;101417.72;5072850;28;20173;-62
2023/04/10 10:38:44;;;;;;;9.27;5.57;;;;;;;14.74;77.80;101409.66;5072709;28;20048;-62
2023/04/10 10:41:17;;;;;;;9.10;5.47;;;;;;;14.74;78.36;101401.72;5072821;28;20417;-62
2023/04/10 10:43:53;;;;;;;10.38;5.90;;;;;;;14.74;78.01;101407.03;5072888;28;20487;-62
2023/04/10 10:46:32;;;;;;;9.55;5.97;;;;;;;14.85;78.54;101395.63;5069667;28;20074;-62
2023/04/10 10:49:01;;;;;;;8.82;5.80;;;;;;;14.87;75.95;101391.06;5070492;28;20090;-62
2023/04/10 10:51:46;;;;;;;9.65;5.35;;;;;;;14.82;76.84;101379.97;5072579;28;20045;-62
2023/04/10 10:54:31;;;;;;;8.00;5.05;;;;;;;14.84;75.61;101384.19;5072486;28;20450;-63
2023/04/10 10:57:00;;;;;;;8.23;4.97;;;;;;;14.91;76.14;101362.56;5068155;28;20041;-62
2023/04/10 10:59:57;;;;;;;9.23;4.80;;;;;;;14.94;74.34;101363.16;5069654;28;20140;-62
2023/04/10 11:02:25;;;;;;;8.13;5.07;;;;;;;15.08;75.04;101359.47;5072507;28;20361;-62
2023/04/10 11:04:54;;;;;;;8.93;4.90;;;;;;;15.20;75.83;101347.94;5069340;28;20063;-62
2023/04/10 11:08:04;;;;;;;9.40;5.13;;;;;;;15.40;76.48;101347.38;5069590;28;20507;-62
2023/04/10 11:11:01;;;;;;;7.85;5.15;;;;;;;15.45;74.37;101350.50;5069145;28;20052;-62
2023/04/10 11:13:29;;;;;;;9.20;5.35;;;;;;;15.45;73.82;101347.84;5071979;28;20438;-62
2023/04/10 11:16:00;;;;;;;8.10;4.85;;;;;;;15.49;75.02;101342.19;5070215;28;20110;-63
2023/04/10 11:19:02;;;;;;;7.85;4.70;;;;;;;15.46;74.30;101342.44;5068674;28;20037;-62
2023/04/10 11:22:04;;;;;;;8.23;5.30;;;;;;;15.75;74.64;101325.16;5071210;28;20132;-62
2023/04/10 11:24:59;;;;;;;9.02;5.28;;;;;;;15.74;74.40;101319.03;5069740;28;20070;-62
2023/04/10 11:27:43;;;;;;;9.25;5.70;;;;;;;16.00;73.34;101313.47;5070302;28;20102;-62
2023/04/10 11:30:31;;;;;;;8.55;5.22;;;;;;;16.15;73.92;101314.88;5072259;28;20110;-63